sensor_id;sensor_type;location;lat;lon;timestamp;P1;durP1;ratioP1;P2;durP2;ratioP2
13240;SDS011;6687;47.790;7.322;2024-01-27T06:18:50;1.23;;;1.13;;
13240;SDS011;6687;47.790;7.322;2024-01-27T06:21:18;1.38;;;0.85;;
13240;SDS011;6687;47.790;7.322;2024-01-27T06:23:45;1.05;;;1.05;;
13240;SDS011;6687;47.790;7.322;2024-01-27T06:26:12;0.55;;;0.55;;
13240;SDS011;6687;47.790;7.322;2024-01-27T06:28:39;1.13;;;0.98;;
13240;SDS011;6687;47.790;7.322;2024-01-27T06:31:06;0.80;;;0.73;;
13240;SDS011;6687;47.790;7.322;2024-01-27T06:33:34;0.80;;;0.77;;
13240;SDS011;6687;47.790;7.322;2024-01-27T06:36:02;0.60;;;0.60;;
13240;SDS011;6687;47.790;7.322;2024-01-27T06:38:29;1.45;;;0.90;;
13240;SDS011;6687;47.790;7.322;2024-01-27T06:40:56;1.48;;;0.82;;
13240;SDS011;6687;47.790;7.322;2024-01-27T06:43:23;0.47;;;0.47;;
13240;SDS011;6687;47.790;7.322;2024-01-27T06:45:50;0.73;;;0.73;;
13240;SDS011;6687;47.790;7.322;2024-01-27T06:48:16;0.80;;;0.80;;
13240;SDS011;6687;47.790;7.322;2024-01-27T06:50:43;2.00;;;1.58;;
13240;SDS011;6687;47.790;7.322;2024-01-27T06:53:11;2.85;;;1.77;;
13240;SDS011;6687;47.790;7.322;2024-01-27T06:55:38;1.85;;;1.75;;
13240;SDS011;6687;47.790;7.322;2024-01-27T06:58:05;2.20;;;2.00;;
13240;SDS011;6687;47.790;7.322;2024-01-27T07:00:31;1.73;;;1.63;;
13240;SDS011;6687;47.790;7.322;2024-01-27T07:02:58;2.50;;;2.08;;
13240;SDS011;6687;47.790;7.322;2024-01-27T07:05:24;2.45;;;1.77;;
13240;SDS011;6687;47.790;7.322;2024-01-27T07:07:51;1.83;;;1.73;;
13240;SDS011;6687;47.790;7.322;2024-01-27T07:10:19;4.03;;;2.35;;
13240;SDS011;6687;47.790;7.322;2024-01-27T07:12:46;2.97;;;2.13;;
13240;SDS011;6687;47.790;7.322;2024-01-27T07:15:13;2.40;;;2.20;;
13240;SDS011;6687;47.790;7.322;2024-01-27T07:17:40;3.13;;;2.45;;
13240;SDS011;6687;47.790;7.322;2024-01-27T07:20:07;1.27;;;1.17;;
13240;SDS011;6687;47.790;7.322;2024-01-27T07:22:34;1.35;;;1.33;;
13240;SDS011;6687;47.790;7.322;2024-01-27T07:25:01;1.80;;;1.70;;
13240;SDS011;6687;47.790;7.322;2024-01-27T07:27:29;1.33;;;1.20;;
13240;SDS011;6687;47.790;7.322;2024-01-27T07:29:56;1.98;;;1.10;;
13240;SDS011;6687;47.790;7.322;2024-01-27T07:32:23;1.00;;;1.00;;
13240;SDS011;6687;47.790;7.322;2024-01-27T07:34:51;1.40;;;1.30;;
13240;SDS011;6687;47.790;7.322;2024-01-27T07:37:17;2.05;;;1.70;;
13240;SDS011;6687;47.790;7.322;2024-01-27T07:39:46;1.08;;;1.02;;
13240;SDS011;6687;47.790;7.322;2024-01-27T07:42:14;1.50;;;1.40;;
13240;SDS011;6687;47.790;7.322;2024-01-27T07:44:42;2.03;;;1.63;;
13240;SDS011;6687;47.790;7.322;2024-01-27T07:47:08;1.70;;;1.55;;
13240;SDS011;6687;47.790;7.322;2024-01-27T07:49:35;1.80;;;1.45;;
13240;SDS011;6687;47.790;7.322;2024-01-27T07:52:02;1.08;;;1.08;;
13240;SDS011;6687;47.790;7.322;2024-01-27T07:54:29;4.35;;;2.05;;
13240;SDS011;6687;47.790;7.322;2024-01-27T07:56:56;2.78;;;2.22;;
13240;SDS011;6687;47.790;7.322;2024-01-27T07:59:23;2.40;;;2.20;;
13240;SDS011;6687;47.790;7.322;2024-01-27T08:01:51;1.58;;;1.48;;
13240;SDS011;6687;47.790;7.322;2024-01-27T08:04:18;2.08;;;1.90;;
13240;SDS011;6687;47.790;7.322;2024-01-27T08:06:45;2.13;;;1.88;;
13240;SDS011;6687;47.790;7.322;2024-01-27T08:09:13;2.00;;;1.90;;
13240;SDS011;6687;47.790;7.322;2024-01-27T08:11:40;2.25;;;1.77;;
13240;SDS011;6687;47.790;7.322;2024-01-27T08:14:07;1.40;;;1.17;;
13240;SDS011;6687;47.790;7.322;2024-01-27T08:16:33;2.05;;;1.85;;
13240;SDS011;6687;47.790;7.322;2024-01-27T08:19:01;1.80;;;1.70;;
13240;SDS011;6687;47.790;7.322;2024-01-27T08:21:28;2.53;;;1.70;;
13240;SDS011;6687;47.790;7.322;2024-01-27T08:23:55;2.60;;;1.58;;
13240;SDS011;6687;47.790;7.322;2024-01-27T08:26:22;2.33;;;1.48;;
13240;SDS011;6687;47.790;7.322;2024-01-27T08:28:48;1.83;;;1.35;;
13240;SDS011;6687;47.790;7.322;2024-01-27T08:31:15;1.00;;;0.90;;
13240;SDS011;6687;47.790;7.322;2024-01-27T08:33:42;1.70;;;1.27;;
13240;SDS011;6687;47.790;7.322;2024-01-27T08:36:14;0.82;;;0.82;;
13240;SDS011;6687;47.790;7.322;2024-01-27T08:38:40;1.60;;;1.50;;
13240;SDS011;6687;47.790;7.322;2024-01-27T08:41:07;1.73;;;0.98;;
13240;SDS011;6687;47.790;7.322;2024-01-27T08:43:34;1.00;;;0.90;;
13240;SDS011;6687;47.790;7.322;2024-01-27T08:46:01;2.50;;;1.13;;
13240;SDS011;6687;47.790;7.322;2024-01-27T08:48:27;1.05;;;1.05;;
13240;SDS011;6687;47.790;7.322;2024-01-27T08:50:54;1.45;;;1.38;;
13240;SDS011;6687;47.790;7.322;2024-01-27T08:53:22;1.30;;;1.25;;
13240;SDS011;6687;47.790;7.322;2024-01-27T08:55:49;1.30;;;1.20;;
13240;SDS011;6687;47.790;7.322;2024-01-27T08:58:15;1.33;;;1.25;;
13240;SDS011;6687;47.790;7.322;2024-01-27T09:00:42;1.23;;;1.13;;
13240;SDS011;6687;47.790;7.322;2024-01-27T09:03:09;1.70;;;1.60;;
13240;SDS011;6687;47.790;7.322;2024-01-27T09:05:37;1.27;;;1.08;;
13240;SDS011;6687;47.790;7.322;2024-01-27T09:08:05;0.68;;;0.68;;
13240;SDS011;6687;47.790;7.322;2024-01-27T09:10:34;0.40;;;0.25;;
13240;SDS011;6687;47.790;7.322;2024-01-27T09:13:01;0.40;;;0.40;;
13240;SDS011;6687;47.790;7.322;2024-01-27T09:15:27;0.55;;;0.55;;
13240;SDS011;6687;47.790;7.322;2024-01-27T09:17:54;1.15;;;1.08;;
13240;SDS011;6687;47.790;7.322;2024-01-27T09:20:21;0.50;;;0.50;;
13240;SDS011;6687;47.790;7.322;2024-01-27T09:22:48;1.20;;;0.52;;
13240;SDS011;6687;47.790;7.322;2024-01-27T09:25:15;0.57;;;0.57;;
13240;SDS011;6687;47.790;7.322;2024-01-27T09:27:44;0.65;;;0.65;;
13240;SDS011;6687;47.790;7.322;2024-01-27T09:30:11;0.73;;;0.73;;
13240;SDS011;6687;47.790;7.322;2024-01-27T09:32:39;1.90;;;1.35;;
13240;SDS011;6687;47.790;7.322;2024-01-27T09:35:06;0.93;;;0.63;;
13240;SDS011;6687;47.790;7.322;2024-01-27T09:37:32;0.28;;;0.28;;
13240;SDS011;6687;47.790;7.322;2024-01-27T09:39:59;0.77;;;0.77;;
13240;SDS011;6687;47.790;7.322;2024-01-27T09:42:27;0.38;;;0.38;;
13240;SDS011;6687;47.790;7.322;2024-01-27T09:44:56;1.98;;;1.83;;
13240;SDS011;6687;47.790;7.322;2024-01-27T09:47:25;2.72;;;1.50;;
13240;SDS011;6687;47.790;7.322;2024-01-27T09:49:52;0.63;;;0.63;;
13240;SDS011;6687;47.790;7.322;2024-01-27T09:52:19;1.00;;;0.63;;
13240;SDS011;6687;47.790;7.322;2024-01-27T09:54:46;1.23;;;0.82;;
13240;SDS011;6687;47.790;7.322;2024-01-27T09:57:14;0.70;;;0.70;;
13240;SDS011;6687;47.790;7.322;2024-01-27T09:59:43;0.93;;;0.80;;
13240;SDS011;6687;47.790;7.322;2024-01-27T10:02:13;0.68;;;0.68;;
13240;SDS011;6687;47.790;7.322;2024-01-27T10:04:41;0.60;;;0.52;;
13240;SDS011;6687;47.790;7.322;2024-01-27T10:07:08;0.20;;;0.20;;
13240;SDS011;6687;47.790;7.322;2024-01-27T10:09:35;0.50;;;0.50;;
13240;SDS011;6687;47.790;7.322;2024-01-27T10:12:02;0.65;;;0.65;;
13240;SDS011;6687;47.790;7.322;2024-01-27T10:14:37;0.50;;;0.50;;
13240;SDS011;6687;47.790;7.322;2024-01-27T10:17:05;0.90;;;0.77;;
13240;SDS011;6687;47.790;7.322;2024-01-27T10:19:33;0.57;;;0.52;;
13240;SDS011;6687;47.790;7.322;2024-01-27T10:22:00;1.42;;;1.27;;
13240;SDS011;6687;47.790;7.322;2024-01-27T10:24:27;0.50;;;0.50;;
13240;SDS011;6687;47.790;7.322;2024-01-27T10:26:58;0.98;;;0.98;;
13240;SDS011;6687;47.790;7.322;2024-01-27T10:29:26;1.75;;;1.65;;
13240;SDS011;6687;47.790;7.322;2024-01-27T10:31:53;1.25;;;0.52;;
13240;SDS011;6687;47.790;7.322;2024-01-27T10:34:20;1.02;;;0.60;;
13240;SDS011;6687;47.790;7.322;2024-01-27T10:36:48;0.77;;;0.77;;
13240;SDS011;6687;47.790;7.322;2024-01-27T10:39:15;1.23;;;0.98;;
13240;SDS011;6687;47.790;7.322;2024-01-27T10:41:43;0.90;;;0.90;;
13240;SDS011;6687;47.790;7.322;2024-01-27T10:44:13;1.77;;;1.23;;
13240;SDS011;6687;47.790;7.322;2024-01-27T10:46:41;1.00;;;0.57;;
13240;SDS011;6687;47.790;7.322;2024-01-27T10:49:10;1.20;;;1.10;;
13240;SDS011;6687;47.790;7.322;2024-01-27T10:51:41;1.50;;;1.15;;
13240;SDS011;6687;47.790;7.322;2024-01-27T10:54:15;0.75;;;0.55;;
13240;SDS011;6687;47.790;7.322;2024-01-27T10:56:46;2.05;;;0.90;;
13240;SDS011;6687;47.790;7.322;2024-01-27T10:59:14;1.13;;;0.55;;
13240;SDS011;6687;47.790;7.322;2024-01-27T11:01:43;1.55;;;0.75;;
13240;SDS011;6687;47.790;7.322;2024-01-27T11:04:12;0.35;;;0.35;;
13240;SDS011;6687;47.790;7.322;2024-01-27T11:06:39;1.65;;;1.40;;
13240;SDS011;6687;47.790;7.322;2024-01-27T11:09:08;1.27;;;1.17;;
13240;SDS011;6687;47.790;7.322;2024-01-27T11:11:37;0.40;;;0.40;;
13240;SDS011;6687;47.790;7.322;2024-01-27T11:14:06;0.55;;;0.55;;
13240;SDS011;6687;47.790;7.322;2024-01-27T11:16:34;0.82;;;0.82;;
13240;SDS011;6687;47.790;7.322;2024-01-27T11:19:03;0.70;;;0.70;;
13240;SDS011;6687;47.790;7.322;2024-01-27T11:21:31;0.40;;;0.40;;
13240;SDS011;6687;47.790;7.322;2024-01-27T11:23:57;1.45;;;0.90;;
13240;SDS011;6687;47.790;7.322;2024-01-27T11:26:24;0.40;;;0.22;;
13240;SDS011;6687;47.790;7.322;2024-01-27T11:28:52;0.40;;;0.40;;
13240;SDS011;6687;47.790;7.322;2024-01-27T11:31:19;0.60;;;0.60;;
13240;SDS011;6687;47.790;7.322;2024-01-27T11:33:46;0.55;;;0.55;;
13240;SDS011;6687;47.790;7.322;2024-01-27T11:36:20;0.55;;;0.55;;
13240;SDS011;6687;47.790;7.322;2024-01-27T11:38:48;0.52;;;0.52;;
13240;SDS011;6687;47.790;7.322;2024-01-27T11:41:25;0.65;;;0.65;;
13240;SDS011;6687;47.790;7.322;2024-01-27T11:43:54;0.70;;;0.70;;
13240;SDS011;6687;47.790;7.322;2024-01-27T11:46:22;2.42;;;1.08;;
13240;SDS011;6687;47.790;7.322;2024-01-27T11:48:49;1.17;;;1.08;;
13240;SDS011;6687;47.790;7.322;2024-01-27T11:51:16;0.75;;;0.75;;
13240;SDS011;6687;47.790;7.322;2024-01-27T11:53:43;1.65;;;1.13;;
13240;SDS011;6687;47.790;7.322;2024-01-27T11:56:11;0.22;;;0.22;;
13240;SDS011;6687;47.790;7.322;2024-01-27T11:58:38;0.35;;;0.35;;
13240;SDS011;6687;47.790;7.322;2024-01-27T12:01:06;0.50;;;0.50;;
13240;SDS011;6687;47.790;7.322;2024-01-27T12:03:34;0.73;;;0.55;;
13240;SDS011;6687;47.790;7.322;2024-01-27T12:06:01;1.20;;;0.90;;
13240;SDS011;6687;47.790;7.322;2024-01-27T12:08:28;0.43;;;0.30;;
13240;SDS011;6687;47.790;7.322;2024-01-27T12:10:54;0.43;;;0.43;;
13240;SDS011;6687;47.790;7.322;2024-01-27T12:13:21;0.45;;;0.45;;
13240;SDS011;6687;47.790;7.322;2024-01-27T12:15:48;0.50;;;0.50;;
13240;SDS011;6687;47.790;7.322;2024-01-27T12:18:16;0.98;;;0.95;;
13240;SDS011;6687;47.790;7.322;2024-01-27T12:20:44;0.52;;;0.52;;
13240;SDS011;6687;47.790;7.322;2024-01-27T12:23:11;0.80;;;0.80;;
13240;SDS011;6687;47.790;7.322;2024-01-27T12:25:38;0.43;;;0.30;;
13240;SDS011;6687;47.790;7.322;2024-01-27T12:28:05;0.38;;;0.38;;
13240;SDS011;6687;47.790;7.322;2024-01-27T12:30:33;0.30;;;0.30;;
13240;SDS011;6687;47.790;7.322;2024-01-27T12:33:00;0.30;;;0.30;;
13240;SDS011;6687;47.790;7.322;2024-01-27T12:35:28;0.30;;;0.30;;
13240;SDS011;6687;47.790;7.322;2024-01-27T12:37:55;0.30;;;0.30;;
13240;SDS011;6687;47.790;7.322;2024-01-27T12:40:22;0.63;;;0.47;;
13240;SDS011;6687;47.790;7.322;2024-01-27T12:42:49;0.25;;;0.25;;
13240;SDS011;6687;47.790;7.322;2024-01-27T12:45:16;0.52;;;0.52;;
13240;SDS011;6687;47.790;7.322;2024-01-27T12:47:43;0.28;;;0.28;;
13240;SDS011;6687;47.790;7.322;2024-01-27T12:50:10;0.15;;;0.15;;
13240;SDS011;6687;47.790;7.322;2024-01-27T12:52:39;0.10;;;0.10;;
13240;SDS011;6687;47.790;7.322;2024-01-27T12:55:06;0.77;;;0.77;;
13240;SDS011;6687;47.790;7.322;2024-01-27T12:57:33;0.30;;;0.30;;
13240;SDS011;6687;47.790;7.322;2024-01-27T13:00:00;0.20;;;0.20;;
13240;SDS011;6687;47.790;7.322;2024-01-27T13:02:29;0.50;;;0.50;;
13240;SDS011;6687;47.790;7.322;2024-01-27T13:04:55;0.32;;;0.32;;
13240;SDS011;6687;47.790;7.322;2024-01-27T13:07:22;0.32;;;0.32;;
13240;SDS011;6687;47.790;7.322;2024-01-27T13:09:50;0.55;;;0.55;;
13240;SDS011;6687;47.790;7.322;2024-01-27T13:12:17;0.38;;;0.28;;
13240;SDS011;6687;47.790;7.322;2024-01-27T13:14:44;0.40;;;0.40;;
13240;SDS011;6687;47.790;7.322;2024-01-27T13:17:10;0.88;;;0.85;;
13240;SDS011;6687;47.790;7.322;2024-01-27T13:19:39;0.50;;;0.50;;
13240;SDS011;6687;47.790;7.322;2024-01-27T13:22:06;0.40;;;0.40;;
13240;SDS011;6687;47.790;7.322;2024-01-27T13:24:32;1.30;;;0.52;;
13240;SDS011;6687;47.790;7.322;2024-01-27T13:27:01;0.38;;;0.38;;
13240;SDS011;6687;47.790;7.322;2024-01-27T13:29:27;0.35;;;0.22;;
13240;SDS011;6687;47.790;7.322;2024-01-27T13:31:54;0.45;;;0.45;;
13240;SDS011;6687;47.790;7.322;2024-01-27T13:34:23;1.27;;;0.75;;
13240;SDS011;6687;47.790;7.322;2024-01-27T13:36:50;0.60;;;0.60;;
13240;SDS011;6687;47.790;7.322;2024-01-27T13:39:16;0.20;;;0.15;;
13240;SDS011;6687;47.790;7.322;2024-01-27T13:41:43;0.57;;;0.38;;
13240;SDS011;6687;47.790;7.322;2024-01-27T13:44:10;0.68;;;0.68;;
13240;SDS011;6687;47.790;7.322;2024-01-27T13:46:37;0.35;;;0.35;;
13240;SDS011;6687;47.790;7.322;2024-01-27T13:49:04;0.30;;;0.30;;
13240;SDS011;6687;47.790;7.322;2024-01-27T13:51:30;0.63;;;0.30;;
13240;SDS011;6687;47.790;7.322;2024-01-27T13:53:57;0.32;;;0.32;;
13240;SDS011;6687;47.790;7.322;2024-01-27T13:56:24;0.73;;;0.73;;
13240;SDS011;6687;47.790;7.322;2024-01-27T13:58:52;0.43;;;0.43;;
13240;SDS011;6687;47.790;7.322;2024-01-27T14:01:21;0.40;;;0.40;;
13240;SDS011;6687;47.790;7.322;2024-01-27T14:03:47;0.52;;;0.45;;
13240;SDS011;6687;47.790;7.322;2024-01-27T14:06:14;0.38;;;0.38;;
13240;SDS011;6687;47.790;7.322;2024-01-27T14:08:42;0.30;;;0.28;;
13240;SDS011;6687;47.790;7.322;2024-01-27T14:11:10;0.52;;;0.52;;
13240;SDS011;6687;47.790;7.322;2024-01-27T14:13:36;0.63;;;0.43;;
13240;SDS011;6687;47.790;7.322;2024-01-27T14:16:03;0.38;;;0.25;;
13240;SDS011;6687;47.790;7.322;2024-01-27T14:18:31;0.30;;;0.30;;
13240;SDS011;6687;47.790;7.322;2024-01-27T14:20:58;0.20;;;0.20;;
13240;SDS011;6687;47.790;7.322;2024-01-27T14:23:25;1.00;;;0.90;;
13240;SDS011;6687;47.790;7.322;2024-01-27T14:25:51;0.40;;;0.40;;
13240;SDS011;6687;47.790;7.322;2024-01-27T14:28:18;0.40;;;0.40;;
13240;SDS011;6687;47.790;7.322;2024-01-27T14:30:46;0.63;;;0.38;;
13240;SDS011;6687;47.790;7.322;2024-01-27T14:33:13;0.43;;;0.43;;
13240;SDS011;6687;47.790;7.322;2024-01-27T14:35:46;0.35;;;0.35;;
13240;SDS011;6687;47.790;7.322;2024-01-27T14:38:13;0.45;;;0.45;;
13240;SDS011;6687;47.790;7.322;2024-01-27T14:40:40;0.65;;;0.43;;
13240;SDS011;6687;47.790;7.322;2024-01-27T14:43:07;0.30;;;0.30;;
13240;SDS011;6687;47.790;7.322;2024-01-27T14:45:36;0.40;;;0.40;;
13240;SDS011;6687;47.790;7.322;2024-01-27T14:48:04;0.30;;;0.30;;
13240;SDS011;6687;47.790;7.322;2024-01-27T14:50:31;0.32;;;0.32;;
13240;SDS011;6687;47.790;7.322;2024-01-27T14:52:59;0.25;;;0.25;;
13240;SDS011;6687;47.790;7.322;2024-01-27T14:55:27;0.60;;;0.60;;
13240;SDS011;6687;47.790;7.322;2024-01-27T14:57:55;0.10;;;0.10;;
13240;SDS011;6687;47.790;7.322;2024-01-27T15:00:22;0.50;;;0.50;;
13240;SDS011;6687;47.790;7.322;2024-01-27T15:02:49;0.22;;;0.22;;
13240;SDS011;6687;47.790;7.322;2024-01-27T15:05:15;0.40;;;0.40;;
13240;SDS011;6687;47.790;7.322;2024-01-27T15:07:44;0.52;;;0.52;;
13240;SDS011;6687;47.790;7.322;2024-01-27T15:10:13;0.60;;;0.55;;
13240;SDS011;6687;47.790;7.322;2024-01-27T15:12:40;0.30;;;0.30;;
13240;SDS011;6687;47.790;7.322;2024-01-27T15:15:07;0.10;;;0.10;;
13240;SDS011;6687;47.790;7.322;2024-01-27T15:17:34;0.90;;;0.57;;
13240;SDS011;6687;47.790;7.322;2024-01-27T15:20:01;0.38;;;0.38;;
13240;SDS011;6687;47.790;7.322;2024-01-27T15:22:28;0.38;;;0.38;;
13240;SDS011;6687;47.790;7.322;2024-01-27T15:24:54;0.50;;;0.50;;
13240;SDS011;6687;47.790;7.322;2024-01-27T15:27:23;0.40;;;0.30;;
13240;SDS011;6687;47.790;7.322;2024-01-27T15:29:50;0.43;;;0.25;;
13240;SDS011;6687;47.790;7.322;2024-01-27T15:32:17;0.50;;;0.50;;
13240;SDS011;6687;47.790;7.322;2024-01-27T15:34:46;0.30;;;0.30;;
13240;SDS011;6687;47.790;7.322;2024-01-27T15:37:14;0.30;;;0.30;;
13240;SDS011;6687;47.790;7.322;2024-01-27T15:39:41;0.43;;;0.43;;
13240;SDS011;6687;47.790;7.322;2024-01-27T15:42:09;0.40;;;0.40;;
13240;SDS011;6687;47.790;7.322;2024-01-27T15:44:37;0.40;;;0.40;;
13240;SDS011;6687;47.790;7.322;2024-01-27T15:47:04;0.82;;;0.68;;
13240;SDS011;6687;47.790;7.322;2024-01-27T15:49:32;0.32;;;0.32;;
13240;SDS011;6687;47.790;7.322;2024-01-27T15:51:58;0.52;;;0.43;;
13240;SDS011;6687;47.790;7.322;2024-01-27T15:54:25;0.77;;;0.77;;
13240;SDS011;6687;47.790;7.322;2024-01-27T15:56:52;0.90;;;0.75;;
13240;SDS011;6687;47.790;7.322;2024-01-27T15:59:19;0.85;;;0.45;;
13240;SDS011;6687;47.790;7.322;2024-01-27T16:01:47;0.80;;;0.57;;
13240;SDS011;6687;47.790;7.322;2024-01-27T16:04:13;1.27;;;0.95;;
13240;SDS011;6687;47.790;7.322;2024-01-27T16:06:40;1.23;;;0.90;;
13240;SDS011;6687;47.790;7.322;2024-01-27T16:09:07;0.57;;;0.57;;
13240;SDS011;6687;47.790;7.322;2024-01-27T16:11:34;2.05;;;0.93;;
13240;SDS011;6687;47.790;7.322;2024-01-27T16:14:01;0.90;;;0.90;;
13240;SDS011;6687;47.790;7.322;2024-01-27T16:16:28;0.90;;;0.90;;
13240;SDS011;6687;47.790;7.322;2024-01-27T16:18:56;0.63;;;0.63;;
13240;SDS011;6687;47.790;7.322;2024-01-27T16:21:23;0.70;;;0.70;;
13240;SDS011;6687;47.790;7.322;2024-01-27T16:23:49;1.15;;;1.15;;
13240;SDS011;6687;47.790;7.322;2024-01-27T16:26:16;0.88;;;0.88;;
13240;SDS011;6687;47.790;7.322;2024-01-27T16:28:43;0.88;;;0.88;;
13240;SDS011;6687;47.790;7.322;2024-01-27T16:31:11;1.20;;;1.10;;
13240;SDS011;6687;47.790;7.322;2024-01-27T16:33:38;1.23;;;1.13;;
13240;SDS011;6687;47.790;7.322;2024-01-27T16:36:07;1.33;;;1.23;;
13240;SDS011;6687;47.790;7.322;2024-01-27T16:38:34;1.80;;;1.70;;
13240;SDS011;6687;47.790;7.322;2024-01-27T16:41:01;1.50;;;1.38;;
13240;SDS011;6687;47.790;7.322;2024-01-27T16:43:27;1.02;;;1.00;;
13240;SDS011;6687;47.790;7.322;2024-01-27T16:45:54;1.15;;;1.15;;
13240;SDS011;6687;47.790;7.322;2024-01-27T16:48:21;1.13;;;1.13;;
13240;SDS011;6687;47.790;7.322;2024-01-27T16:50:49;0.95;;;0.95;;
13240;SDS011;6687;47.790;7.322;2024-01-27T16:53:17;0.75;;;0.75;;
13240;SDS011;6687;47.790;7.322;2024-01-27T16:55:43;1.05;;;1.05;;
13240;SDS011;6687;47.790;7.322;2024-01-27T16:58:10;2.38;;;2.10;;
13240;SDS011;6687;47.790;7.322;2024-01-27T17:00:37;2.05;;;1.63;;
13240;SDS011;6687;47.790;7.322;2024-01-27T17:03:04;2.30;;;1.95;;
13240;SDS011;6687;47.790;7.322;2024-01-27T17:05:30;2.35;;;2.15;;
13240;SDS011;6687;47.790;7.322;2024-01-27T17:07:57;1.58;;;1.48;;
13240;SDS011;6687;47.790;7.322;2024-01-27T17:10:26;1.63;;;1.52;;
13240;SDS011;6687;47.790;7.322;2024-01-27T17:12:52;1.40;;;1.40;;
13240;SDS011;6687;47.790;7.322;2024-01-27T17:15:19;1.98;;;1.45;;
13240;SDS011;6687;47.790;7.322;2024-01-27T17:17:46;1.60;;;1.50;;
13240;SDS011;6687;47.790;7.322;2024-01-27T17:20:13;3.88;;;2.03;;
13240;SDS011;6687;47.790;7.322;2024-01-27T17:22:40;1.55;;;1.45;;
13240;SDS011;6687;47.790;7.322;2024-01-27T17:25:07;3.22;;;2.17;;
13240;SDS011;6687;47.790;7.322;2024-01-27T17:27:35;1.65;;;1.55;;
13240;SDS011;6687;47.790;7.322;2024-01-27T17:30:02;1.60;;;1.50;;
13240;SDS011;6687;47.790;7.322;2024-01-27T17:32:33;1.40;;;1.30;;
13240;SDS011;6687;47.790;7.322;2024-01-27T17:35:01;1.08;;;1.08;;
13240;SDS011;6687;47.790;7.322;2024-01-27T17:37:29;1.02;;;1.02;;
13240;SDS011;6687;47.790;7.322;2024-01-27T17:39:58;1.52;;;1.42;;
13240;SDS011;6687;47.790;7.322;2024-01-27T17:42:27;2.30;;;1.55;;
13240;SDS011;6687;47.790;7.322;2024-01-27T17:44:55;1.70;;;1.60;;
13240;SDS011;6687;47.790;7.322;2024-01-27T17:47:22;1.38;;;1.17;;
13240;SDS011;6687;47.790;7.322;2024-01-27T17:49:49;1.83;;;1.73;;
13240;SDS011;6687;47.790;7.322;2024-01-27T17:52:15;2.08;;;1.83;;
13240;SDS011;6687;47.790;7.322;2024-01-27T17:54:42;1.67;;;1.55;;
13240;SDS011;6687;47.790;7.322;2024-01-27T17:57:09;1.48;;;1.45;;
13240;SDS011;6687;47.790;7.322;2024-01-27T17:59:37;1.80;;;1.58;;
13240;SDS011;6687;47.790;7.322;2024-01-27T18:02:05;2.42;;;1.98;;
13240;SDS011;6687;47.790;7.322;2024-01-27T18:04:32;1.63;;;1.52;;
13240;SDS011;6687;47.790;7.322;2024-01-27T18:06:59;1.95;;;1.80;;
13240;SDS011;6687;47.790;7.322;2024-01-27T18:09:26;2.10;;;1.77;;
13240;SDS011;6687;47.790;7.322;2024-01-27T18:11:53;1.90;;;1.80;;
13240;SDS011;6687;47.790;7.322;2024-01-27T18:14:19;1.67;;;1.58;;
13240;SDS011;6687;47.790;7.322;2024-01-27T18:16:46;1.73;;;1.63;;
13240;SDS011;6687;47.790;7.322;2024-01-27T18:19:14;2.10;;;2.00;;
13240;SDS011;6687;47.790;7.322;2024-01-27T18:21:42;1.98;;;1.65;;
13240;SDS011;6687;47.790;7.322;2024-01-27T18:24:09;1.88;;;1.58;;
13240;SDS011;6687;47.790;7.322;2024-01-27T18:26:36;1.45;;;1.35;;
13240;SDS011;6687;47.790;7.322;2024-01-27T18:29:03;1.85;;;1.38;;
13240;SDS011;6687;47.790;7.322;2024-01-27T18:31:29;1.25;;;1.20;;
13240;SDS011;6687;47.790;7.322;2024-01-27T18:33:56;1.52;;;0.85;;
13240;SDS011;6687;47.790;7.322;2024-01-27T18:36:24;2.15;;;1.75;;
13240;SDS011;6687;47.790;7.322;2024-01-27T18:38:51;1.70;;;1.55;;
13240;SDS011;6687;47.790;7.322;2024-01-27T18:41:19;2.03;;;1.42;;
13240;SDS011;6687;47.790;7.322;2024-01-27T18:43:46;1.20;;;1.10;;
13240;SDS011;6687;47.790;7.322;2024-01-27T18:46:12;1.13;;;1.13;;
13240;SDS011;6687;47.790;7.322;2024-01-27T18:48:39;1.50;;;1.35;;
13240;SDS011;6687;47.790;7.322;2024-01-27T18:51:08;2.20;;;1.35;;
13240;SDS011;6687;47.790;7.322;2024-01-27T18:53:36;2.25;;;1.95;;
13240;SDS011;6687;47.790;7.322;2024-01-27T18:56:03;1.70;;;1.60;;
13240;SDS011;6687;47.790;7.322;2024-01-27T18:58:30;1.33;;;1.23;;
13240;SDS011;6687;47.790;7.322;2024-01-27T19:00:58;1.38;;;1.17;;
13240;SDS011;6687;47.790;7.322;2024-01-27T19:03:24;1.60;;;1.50;;
13240;SDS011;6687;47.790;7.322;2024-01-27T19:05:51;2.00;;;1.77;;
13240;SDS011;6687;47.790;7.322;2024-01-27T19:08:18;2.28;;;1.75;;
13240;SDS011;6687;47.790;7.322;2024-01-27T19:10:47;2.28;;;1.95;;
13240;SDS011;6687;47.790;7.322;2024-01-27T19:13:13;2.10;;;1.65;;
13240;SDS011;6687;47.790;7.322;2024-01-27T19:15:40;1.80;;;1.70;;
13240;SDS011;6687;47.790;7.322;2024-01-27T19:18:07;1.75;;;1.65;;
13240;SDS011;6687;47.790;7.322;2024-01-27T19:20:34;1.67;;;1.45;;
13240;SDS011;6687;47.790;7.322;2024-01-27T19:23:01;1.30;;;1.05;;
13240;SDS011;6687;47.790;7.322;2024-01-27T19:25:28;1.05;;;1.00;;
13240;SDS011;6687;47.790;7.322;2024-01-27T19:27:56;2.60;;;1.52;;
13240;SDS011;6687;47.790;7.322;2024-01-27T19:30:23;1.65;;;0.88;;
13240;SDS011;6687;47.790;7.322;2024-01-27T19:32:50;1.20;;;1.15;;
13240;SDS011;6687;47.790;7.322;2024-01-27T19:35:16;1.13;;;1.05;;
13240;SDS011;6687;47.790;7.322;2024-01-27T19:37:45;1.38;;;1.23;;
13240;SDS011;6687;47.790;7.322;2024-01-27T19:40:11;1.33;;;1.33;;
13240;SDS011;6687;47.790;7.322;2024-01-27T19:42:40;0.80;;;0.80;;
13240;SDS011;6687;47.790;7.322;2024-01-27T19:45:09;1.05;;;0.95;;
13240;SDS011;6687;47.790;7.322;2024-01-27T19:47:36;1.48;;;1.02;;
13240;SDS011;6687;47.790;7.322;2024-01-27T19:50:04;0.85;;;0.85;;
13240;SDS011;6687;47.790;7.322;2024-01-27T19:52:31;1.70;;;1.50;;
13240;SDS011;6687;47.790;7.322;2024-01-27T19:54:58;2.33;;;1.88;;
13240;SDS011;6687;47.790;7.322;2024-01-27T19:57:25;2.53;;;1.73;;
13240;SDS011;6687;47.790;7.322;2024-01-27T19:59:52;2.80;;;1.98;;
13240;SDS011;6687;47.790;7.322;2024-01-27T20:02:20;1.45;;;1.35;;
13240;SDS011;6687;47.790;7.322;2024-01-27T20:04:47;2.78;;;2.30;;
13240;SDS011;6687;47.790;7.322;2024-01-27T20:07:13;1.58;;;1.48;;
13240;SDS011;6687;47.790;7.322;2024-01-27T20:09:40;1.92;;;1.83;;
13240;SDS011;6687;47.790;7.322;2024-01-27T20:12:07;1.52;;;1.42;;
13240;SDS011;6687;47.790;7.322;2024-01-27T20:14:34;1.77;;;1.67;;
13240;SDS011;6687;47.790;7.322;2024-01-27T20:17:01;1.77;;;1.52;;
13240;SDS011;6687;47.790;7.322;2024-01-27T20:19:29;2.20;;;1.65;;
13240;SDS011;6687;47.790;7.322;2024-01-27T20:21:56;1.88;;;1.65;;
13240;SDS011;6687;47.790;7.322;2024-01-27T20:24:23;1.60;;;1.50;;
13240;SDS011;6687;47.790;7.322;2024-01-27T20:26:49;2.05;;;1.88;;
13240;SDS011;6687;47.790;7.322;2024-01-27T20:29:16;1.65;;;1.55;;
13240;SDS011;6687;47.790;7.322;2024-01-27T20:31:43;2.05;;;1.40;;
13240;SDS011;6687;47.790;7.322;2024-01-27T20:34:10;1.88;;;1.77;;
13240;SDS011;6687;47.790;7.322;2024-01-27T20:36:38;1.73;;;1.63;;
13240;SDS011;6687;47.790;7.322;2024-01-27T20:39:05;2.38;;;1.60;;
13240;SDS011;6687;47.790;7.322;2024-01-27T20:41:34;1.95;;;1.85;;
13240;SDS011;6687;47.790;7.322;2024-01-27T20:44:01;1.90;;;1.80;;
13240;SDS011;6687;47.790;7.322;2024-01-27T20:46:27;2.13;;;1.92;;
13240;SDS011;6687;47.790;7.322;2024-01-27T20:48:54;2.45;;;2.28;;
13240;SDS011;6687;47.790;7.322;2024-01-27T20:51:21;3.88;;;2.85;;
13240;SDS011;6687;47.790;7.322;2024-01-27T20:53:49;4.07;;;3.70;;
13240;SDS011;6687;47.790;7.322;2024-01-27T20:56:16;4.03;;;2.83;;
13240;SDS011;6687;47.790;7.322;2024-01-27T20:58:43;2.92;;;2.65;;
13240;SDS011;6687;47.790;7.322;2024-01-27T21:01:09;2.17;;;1.92;;
13240;SDS011;6687;47.790;7.322;2024-01-27T21:03:37;2.58;;;2.40;;
13240;SDS011;6687;47.790;7.322;2024-01-27T21:06:03;2.97;;;2.53;;
13240;SDS011;6687;47.790;7.322;2024-01-27T21:08:30;2.95;;;2.75;;
13240;SDS011;6687;47.790;7.322;2024-01-27T21:10:58;2.17;;;2.08;;
13240;SDS011;6687;47.790;7.322;2024-01-27T21:13:28;2.63;;;2.47;;
13240;SDS011;6687;47.790;7.322;2024-01-27T21:15:55;3.17;;;2.88;;
13240;SDS011;6687;47.790;7.322;2024-01-27T21:18:21;3.40;;;2.80;;